Wind From: 22-02-2020 09:00 Until: 18:00 warning for: Wind Level: Yellow info button
Snow/Ice From: 20-02-2020 08:00 Until: 23-02-2020 07:00 warning for: Snow/Ice Level: Yellow info button


Varsler for Snø/Is more information rain snow radar



Nære METAR værraporter

   
ENGM - Oslo
Oppdatert: 22-02-2020 10:20
Regn, Overskyet  
Regn, Overskyet  
   Vind: SSV 9.8 m/s<br />Gust to 9.8 m/s
Vind: SSV 9.8 m/s
Gust to 9.8 m/s
Temperatur: 6°C
Wind Chill: 1°C
Duggpunkt: 4°C
Luftfuktighet: 87%
Barometer: 970 hPa
Skyer: Overskyet
Sikt: 8 km
Detaljer skyer: Noen skyer 335.3 m,
Delvis skyet 396.2 m,
Overskyet 579.1 m
ENGM 220920Z 21019G30KT 8000 RA FEW011 SCT013 OVC019 06/04 Q0970 TEMPO 21019KT NSW
ENTO - Sandefjord
Oppdatert: 22-02-2020 10:20
Noen skyer  
Noen skyer  
   Vind: VSV 10.8 m/s<br />Gust to 10.8 m/s
Vind: VSV 10.8 m/s
Gust to 10.8 m/s
Temperatur: 8°C
Wind Chill: 3°C
Duggpunkt: 2°C
Luftfuktighet: 66%
Barometer: 978 hPa
Skyer: Noen skyer
Sikt: More than 10 km
Detaljer skyer: Noen skyer 457.2 m
ENTO 220920Z 24021G34KT 9999 FEW015 08/02 Q0978 NOSIG
ENNO - Notodden
Oppdatert: 21-02-2020 14:50
Oppdatert, se klokkeslett
Lett Regn, For det meste Overskyet  
Lett Regn, For det meste Overskyet  
   Vind: varierende Stille
Vind: varierende Stille
Barometer: 995 hPa
Skyer: For det meste Overskyet
Sikt: More than 10 km
Detaljer skyer: For det meste Overskyet 1066.8 m,
For det meste Overskyet 1524 m
ENNO 211350Z /////KT 9999 -RA BKN035 BKN050 /////// Q0995
ENRY - Rygge
Oppdatert: 22-02-2020 10:20
Delvis skyet  
Delvis skyet  
   Vind: SV 10.8 m/s<br />Gust to 10.8 m/s
Vind: SV 10.8 m/s
Gust to 10.8 m/s
Temperatur: 8°C
Wind Chill: 3°C
Duggpunkt: 3°C
Luftfuktighet: 71%
Barometer: 977 hPa
Skyer: Delvis skyet
Sikt: More than 10 km
Detaljer skyer: Noen skyer 762 m,
Delvis skyet 1249.7 m
ENRY 220920Z 23021G37KT 200V260 9999 FEW025 SCT041 08/03 Q0977
ENSN - Skien
Oppdatert: 09-11-2015 09:50
Oppdatert, se klokkeslett
Klart  
Klart  
   Vind: SSV 5.1 m/s<br />Gust to 5.1 m/s
Vind: SSV 5.1 m/s
Gust to 5.1 m/s
Temperatur: 7°C
Wind Chill: 4°C
Duggpunkt: 3°C
Luftfuktighet: 76%
Barometer: 1000 hPa
Sikt: More than 10 km
Detaljer skyer: Klart
ENSN 090850Z 20010G22KT 150V240 CAVOK 07/03 Q1000
ENFG - Fagernes
Oppdatert: 22-04-2018 10:50
Oppdatert, se klokkeslett
Klart  
Klart  
   Vind: Sør 3.6 m/s
Vind: Sør 3.6 m/s
Temperatur: 6°C
Wind Chill: 3°C
Duggpunkt: -3°C
Luftfuktighet: 53%
Barometer: 1014 hPa
Sikt: More than 10 km
Detaljer skyer: Klart
ENFG 220850Z 19007KT CAVOK 06/M03 Q1014

Script utviklet av  Saratoga-weather.org Tilpasset for tamplaten av  Weerstation Leuven

Du finner min vær info også på:

European Weather Network

European Weather Network